Forside
METAR-TAF:

METAR-TAF

Lufthavne :

Creston, Iowa, USA

Breddekreds: 41-01N, længdekreds: 094-22W, højde: 394 m

Aktuelle vejr

Denne rapport blev lavet for 17 minutter siden, kl. 12:55 UTC
Vind 11 kt fra sydøst
Temperatur -2°C
Fugtighed 93%
Tryk 1011 hPa
Sigt: 8.0 km
Brudte skyer i en højde af 900 ft
Overskyet i en højde af 1900 ft
dis

METAR: KCSQ 221255Z AUTO 14011KT 5SM BR BKN009 OVC019 M02/M03 A2984 RMK AO2

Tid: 07:12 (13:12 UTC)


TAF: fraværende

Vejrobservationer og prognoser fra mere end 4000 lufthavne (METAR og TAF).

De gule og røde prikker repræsenterer de meteorologiske stationer.

Flyt musen over at se navnet på stationen.

Så klik over at se vejr observationer og prognoser.

At skifte det kort: Klik på de grønne knapper med et sort kors for at zoome ind; på den grønne knap med en bindestreg for at zoome ud; eller på de grønne pile for tilstødende kort.


METAR-TAF: